Time;durP1;ratioP1;P1;durP2;ratioP2;P2;SDS_P1;SDS_P2;PMS_P1;PMS_P2;Temp;Humidity;BMP_temperature;BMP_pressure;BME280_temperature;BME280_humidity;BME280_pressure;Samples;Min_cycle;Max_cycle;Signal;HPM_P1;HPM_P2
2022/12/10 00:02:12;;;;;;;31.05;15.98;;;0.30;99.90;;;;;;20689967;28;20041;-41
2022/12/10 00:12:13;;;;;;;35.00;18.55;;;0.20;99.90;;;;;;20682923;28;20103;-42
2022/12/10 00:22:14;;;;;;;38.60;18.50;;;0.10;99.90;;;;;;20690567;28;20069;-42
2022/12/10 00:32:15;;;;;;;38.00;19.02;;;0.20;99.90;;;;;;20687953;28;20057;-42
2022/12/10 00:42:16;;;;;;;32.97;14.57;;;0.00;99.90;;;;;;20664677;28;20140;-42
2022/12/10 00:52:17;;;;;;;26.85;14.90;;;-0.10;99.90;;;;;;20656829;28;20049;-42
2022/12/10 01:02:19;;;;;;;72.30;20.23;;;-0.10;99.90;;;;;;20630119;28;20069;-43
2022/12/10 01:12:20;;;;;;;105.43;19.30;;;-0.10;99.90;;;;;;20692119;28;20570;-42
2022/12/10 01:22:21;;;;;;;45.65;17.08;;;-0.20;99.90;;;;;;20687477;28;20478;-42
2022/12/10 01:32:22;;;;;;;39.85;17.40;;;-0.10;99.90;;;;;;20706509;28;20512;-41
2022/12/10 01:42:23;;;;;;;58.17;21.00;;;-0.10;99.90;;;;;;20705051;28;20054;-42
2022/12/10 01:52:24;;;;;;;46.67;21.77;;;-0.10;99.90;;;;;;20682002;28;20250;-42
2022/12/10 02:02:42;;;;;;;94.43;25.00;;;-0.10;99.90;;;;;;20685459;28;20108;-42
2022/12/10 02:12:53;;;;;;;100.25;28.67;;;0.10;99.90;;;;;;20679286;28;20247;-41
2022/12/10 02:23:00;;;;;;;140.15;32.17;;;0.00;99.90;;;;;;20688127;28;20145;-42
2022/12/10 02:33:05;;;;;;;44.85;22.10;;;0.10;99.90;;;;;;20705553;28;21896;-41
2022/12/10 02:43:08;;;;;;;53.55;22.65;;;0.10;99.90;;;;;;20660738;28;20437;-42
2022/12/10 02:53:09;;;;;;;72.40;27.15;;;0.10;99.90;;;;;;20637122;28;20179;-42
2022/12/10 03:03:13;;;;;;;38.88;17.75;;;0.20;99.90;;;;;;20622565;28;20038;-41
2022/12/10 03:13:17;;;;;;;49.88;22.95;;;0.30;99.90;;;;;;20580378;28;20082;-42
2022/12/10 03:23:19;;;;;;;93.30;23.02;;;0.10;99.90;;;;;;20585485;28;20090;-41
2022/12/10 03:33:20;;;;;;;39.50;17.65;;;0.10;99.90;;;;;;20596286;28;20132;-42
2022/12/10 03:43:22;;;;;;;39.35;20.33;;;-0.10;99.90;;;;;;20595686;28;20035;-41
2022/12/10 03:53:23;;;;;;;42.45;21.13;;;0.00;99.90;;;;;;20604458;28;20046;-43
2022/12/10 04:03:24;;;;;;;110.07;24.92;;;0.10;99.90;;;;;;20607143;28;20045;-41
2022/12/10 04:34:04;;;;;;;28.40;15.95;;;-0.20;99.90;;;;;;20599807;28;21904;-41
2022/12/10 04:44:05;;;;;;;36.40;16.02;;;-0.10;99.90;;;;;;20585911;28;20046;-41
2022/12/10 04:54:07;;;;;;;55.83;21.67;;;-0.30;99.90;;;;;;20589135;28;20133;-42
2022/12/10 05:04:11;;;;;;;40.75;17.05;;;-0.20;99.90;;;;;;20605002;28;20121;-42
2022/12/10 05:14:14;;;;;;;28.27;14.30;;;-0.30;99.90;;;;;;20609969;28;20065;-42
2022/12/10 05:24:17;;;;;;;120.25;23.45;;;-0.40;99.90;;;;;;20603607;28;20745;-42
2022/12/10 05:34:18;;;;;;;30.02;15.20;;;-0.40;99.90;;;;;;20619442;28;20042;-42
2022/12/10 05:44:19;;;;;;;28.13;14.35;;;-0.40;99.90;;;;;;20620155;28;20092;-42
2022/12/10 05:54:20;;;;;;;55.20;19.90;;;-0.30;99.90;;;;;;20618620;28;20050;-42
2022/12/10 06:04:21;;;;;;;26.23;14.43;;;-0.20;99.90;;;;;;20622306;28;20054;-42
2022/12/10 06:14:22;;;;;;;36.22;17.35;;;-0.30;99.90;;;;;;20605344;28;20038;-43
2022/12/10 06:24:23;;;;;;;51.95;19.17;;;-0.30;99.90;;;;;;20598281;28;20609;-41
2022/12/10 06:34:24;;;;;;;37.72;16.52;;;-0.20;99.90;;;;;;20602069;28;20135;-42
2022/12/10 06:44:25;;;;;;;44.33;16.88;;;-0.30;99.90;;;;;;20594455;28;20081;-43
2022/12/10 06:54:26;;;;;;;45.58;18.80;;;-0.10;99.90;;;;;;20611659;28;20050;-42
2022/12/10 07:04:28;;;;;;;80.10;18.17;;;-0.20;99.90;;;;;;20610938;28;20595;-41
2022/12/10 07:14:29;;;;;;;39.90;15.93;;;-0.30;99.90;;;;;;20594347;28;20499;-42
2022/12/10 07:24:30;;;;;;;61.08;17.23;;;-0.30;99.90;;;;;;20612471;28;20511;-42
2022/12/10 07:34:31;;;;;;;25.35;14.57;;;-0.20;99.90;;;;;;20609180;28;20074;-42
2022/12/10 07:44:32;;;;;;;60.85;18.42;;;-0.20;99.90;;;;;;20617988;28;20054;-42
2022/12/10 07:54:33;;;;;;;34.95;14.77;;;-0.30;99.90;;;;;;20580750;28;20089;-41
2022/12/10 08:04:34;;;;;;;54.97;16.60;;;-0.40;99.90;;;;;;20504278;28;20038;-42
2022/12/10 08:14:35;;;;;;;31.23;15.63;;;-0.30;99.90;;;;;;20597303;28;20046;-42
2022/12/10 08:24:36;;;;;;;25.05;12.43;;;-0.30;99.90;;;;;;20593453;28;20137;-42
2022/12/10 08:34:37;;;;;;;38.20;16.98;;;-0.20;99.90;;;;;;20620238;28;20046;-42
2022/12/10 08:44:38;;;;;;;25.48;14.05;;;-0.20;99.90;;;;;;20556700;28;20042;-42
2022/12/10 08:54:39;;;;;;;30.58;15.77;;;-0.10;99.90;;;;;;20591007;28;20046;-42
2022/12/10 09:04:42;;;;;;;123.00;23.90;;;-0.20;99.90;;;;;;20553488;28;20134;-42
2022/12/10 09:14:43;;;;;;;43.92;18.40;;;-0.20;99.90;;;;;;20564331;28;20162;-42
2022/12/10 09:24:44;;;;;;;54.42;17.70;;;-0.50;99.90;;;;;;20576389;28;20038;-42
2022/12/10 09:34:45;;;;;;;59.72;24.73;;;-0.30;99.90;;;;;;20599065;28;20050;-42
2022/12/10 09:44:56;;;;;;;45.20;16.67;;;-0.30;99.90;;;;;;20583898;28;21845;-42
2022/12/10 09:55:05;;;;;;;51.30;19.00;;;-0.20;99.90;;;;;;20607235;28;20854;-44
2022/12/10 10:05:06;;;;;;;36.38;17.48;;;-0.50;99.90;;;;;;20542555;28;20038;-44
2022/12/10 10:15:14;;;;;;;55.58;18.45;;;-0.30;99.90;;;;;;20577916;28;20061;-43
2022/12/10 10:25:18;;;;;;;30.02;16.13;;;-0.20;99.90;;;;;;20574643;28;20041;-42
2022/12/10 10:35:41;;;;;;;38.70;19.17;;;-0.10;99.90;;;;;;20567554;28;20054;-42
2022/12/10 10:45:47;;;;;;;68.30;22.27;;;-0.10;99.90;;;;;;20592723;28;20136;-42
2022/12/10 10:55:49;;;;;;;72.35;23.17;;;-0.10;99.90;;;;;;20611535;28;20268;-42
2022/12/10 11:05:50;;;;;;;70.97;19.83;;;-0.10;99.90;;;;;;20634582;28;20042;-42
2022/12/10 11:16:14;;;;;;;47.38;19.40;;;-0.20;99.90;;;;;;20633353;28;20069;-42
2022/12/10 11:26:18;;;;;;;48.90;18.40;;;-0.20;99.90;;;;;;20587723;28;21010;-42
2022/12/10 11:36:33;;;;;;;45.25;18.80;;;-0.20;99.90;;;;;;20577260;28;20064;-42
2022/12/10 11:46:56;;;;;;;71.43;19.52;;;-0.10;99.90;;;;;;20606821;28;20366;-42
2022/12/10 11:57:06;;;;;;;69.82;22.73;;;-0.10;99.90;;;;;;20622577;28;21903;-42
2022/12/10 12:07:33;;;;;;;51.92;21.17;;;0.00;99.90;;;;;;20615632;28;20144;-42
2022/12/10 12:17:43;;;;;;;48.22;20.13;;;0.00;99.90;;;;;;20626834;28;20561;-42
2022/12/10 12:27:50;;;;;;;65.13;21.25;;;0.10;99.90;;;;;;20605351;28;20128;-42
2022/12/10 12:38:03;;;;;;;42.10;18.92;;;0.00;99.90;;;;;;20606841;28;20138;-42
2022/12/10 12:48:27;;;;;;;35.55;17.75;;;0.00;99.90;;;;;;20569122;28;20309;-42
2022/12/10 12:59:03;;;;;;;39.15;16.30;;;0.00;99.90;;;;;;20574428;28;20149;-42
2022/12/10 13:09:11;;;;;;;37.53;17.02;;;0.10;99.90;;;;;;20637603;28;20915;-42
2022/12/10 13:19:21;;;;;;;54.38;22.58;;;0.20;99.90;;;;;;20655253;28;20439;-42
2022/12/10 13:29:26;;;;;;;50.38;20.27;;;0.10;99.90;;;;;;20675660;28;20702;-42
2022/12/10 13:39:35;;;;;;;56.30;21.35;;;0.20;99.90;;;;;;20670043;28;20518;-42
2022/12/10 13:49:59;;;;;;;47.55;20.00;;;0.10;99.90;;;;;;20639450;28;20597;-42
2022/12/10 14:00:21;;;;;;;55.15;21.83;;;0.20;99.90;;;;;;20623864;28;20307;-42
2022/12/10 14:10:30;;;;;;;70.32;23.08;;;0.20;99.90;;;;;;20629123;28;20050;-42
2022/12/10 14:20:34;;;;;;;39.30;18.45;;;0.20;99.90;;;;;;20637285;28;20551;-42
2022/12/10 14:30:46;;;;;;;57.47;21.83;;;0.30;99.90;;;;;;20637908;28;20421;-42
2022/12/10 14:40:48;;;;;;;48.15;22.52;;;0.30;99.90;;;;;;20640890;28;20941;-42
2022/12/10 14:50:49;;;;;;;67.57;20.60;;;0.30;99.90;;;;;;20637994;28;20057;-42
2022/12/10 15:00:50;;;;;;;75.07;21.08;;;0.30;99.90;;;;;;20580867;28;20133;-42
2022/12/10 15:10:56;;;;;;;75.97;26.15;;;0.40;99.90;;;;;;20628383;28;20232;-42
2022/12/10 15:21:15;;;;;;;65.03;24.17;;;0.40;99.90;;;;;;20576389;28;20046;-42
2022/12/10 15:31:25;;;;;;;62.70;24.15;;;0.40;99.90;;;;;;20568959;28;20167;-42
2022/12/10 15:41:52;;;;;;;67.50;24.40;;;0.50;99.90;;;;;;20580901;28;20489;-42
2022/12/10 15:51:53;;;;;;;43.93;22.77;;;0.50;99.90;;;;;;20646420;28;20689;-42
2022/12/10 16:01:54;;;;;;;67.78;27.15;;;0.50;99.90;;;;;;20601951;28;20121;-42
2022/12/10 16:11:55;;;;;;;73.40;29.60;;;0.50;99.90;;;;;;20581672;28;20271;-42
2022/12/10 16:21:56;;;;;;;52.05;24.63;;;0.60;99.90;;;;;;20570707;28;21420;-42
2022/12/10 16:31:57;;;;;;;49.75;24.75;;;0.60;99.90;;;;;;20622092;28;20561;-43
2022/12/10 16:41:58;;;;;;;51.03;21.60;;;0.50;99.90;;;;;;20659610;28;20061;-43
2022/12/10 16:51:59;;;;;;;78.47;29.73;;;0.70;99.90;;;;;;20653305;28;20781;-42
2022/12/10 17:02:00;;;;;;;53.85;23.20;;;0.70;99.90;;;;;;20636310;28;20741;-43
2022/12/10 17:12:01;;;;;;;62.30;21.35;;;0.70;99.90;;;;;;20741678;28;20489;-42
2022/12/10 17:22:04;;;;;;;47.38;21.20;;;0.80;99.90;;;;;;20681880;28;20057;-42
2022/12/10 17:32:06;;;;;;;71.55;23.38;;;0.80;99.90;;;;;;20695889;28;20038;-42
2022/12/10 17:42:08;;;;;;;63.03;23.52;;;0.90;99.90;;;;;;20669327;28;20045;-42
2022/12/10 17:52:09;;;;;;;71.70;26.45;;;0.90;99.90;;;;;;20674316;28;20116;-42
2022/12/10 18:02:10;;;;;;;60.50;26.55;;;0.80;99.90;;;;;;20692455;28;20050;-41
2022/12/10 18:12:11;;;;;;;65.60;24.25;;;0.90;99.90;;;;;;20682781;28;20041;-41
2022/12/10 18:22:13;;;;;;;85.90;29.73;;;0.90;99.90;;;;;;20661633;28;20119;-41
2022/12/10 18:32:14;;;;;;;84.45;33.88;;;0.90;99.90;;;;;;20688629;28;20526;-41
2022/12/10 18:42:15;;;;;;;60.80;23.27;;;1.00;99.90;;;;;;20669208;28;20498;-41
2022/12/10 18:52:17;;;;;;;62.33;27.23;;;1.10;99.90;;;;;;20665813;28;20077;-42
2022/12/10 19:02:18;;;;;;;67.47;25.13;;;1.10;99.90;;;;;;20682811;28;20519;-42
2022/12/10 19:12:19;;;;;;;61.70;27.58;;;1.10;99.90;;;;;;20691991;28;20041;-42
2022/12/10 19:22:20;;;;;;;79.25;31.33;;;1.20;99.90;;;;;;20662661;28;20034;-42
2022/12/10 19:32:21;;;;;;;87.40;31.80;;;1.20;99.90;;;;;;20682407;28;20049;-42
2022/12/10 19:42:22;;;;;;;90.65;30.92;;;1.20;99.90;;;;;;20626061;28;20436;-42
2022/12/10 19:52:23;;;;;;;64.35;27.95;;;1.20;99.90;;;;;;20646859;28;20634;-41
2022/12/10 20:02:24;;;;;;;87.65;29.95;;;1.20;99.90;;;;;;20649189;28;20072;-41
2022/12/10 20:12:25;;;;;;;60.60;24.33;;;1.10;99.90;;;;;;20651188;28;20422;-41
2022/12/10 20:22:26;;;;;;;68.10;27.50;;;1.20;99.90;;;;;;20652974;28;20042;-42
2022/12/10 20:32:27;;;;;;;60.10;27.05;;;1.20;99.90;;;;;;20646896;28;20212;-42
2022/12/10 20:42:28;;;;;;;59.75;26.25;;;1.20;99.90;;;;;;20644306;28;20065;-42
2022/12/10 20:52:29;;;;;;;63.78;32.00;;;1.30;99.90;;;;;;20655022;28;20544;-41
2022/12/10 21:02:30;;;;;;;56.50;24.15;;;1.30;99.90;;;;;;20670865;28;20421;-42
2022/12/10 21:12:31;;;;;;;53.05;25.65;;;1.30;99.90;;;;;;20692403;28;20045;-42
2022/12/10 21:22:32;;;;;;;72.22;26.02;;;1.40;99.90;;;;;;20681357;28;20123;-41
2022/12/10 21:32:33;;;;;;;80.28;32.95;;;1.50;99.90;;;;;;20702152;28;20045;-42
2022/12/10 21:52:54;;;;;;;72.35;32.53;;;1.60;99.90;;;;;;20703259;28;20930;-42
2022/12/10 22:02:55;;;;;;;60.70;26.75;;;1.60;99.90;;;;;;20699954;28;20132;-42
2022/12/10 22:12:56;;;;;;;67.35;28.77;;;1.60;99.90;;;;;;20703701;28;20041;-42
2022/12/10 22:22:57;;;;;;;64.43;28.67;;;1.60;99.90;;;;;;20692642;28;20079;-42
2022/12/10 22:32:58;;;;;;;75.45;34.80;;;1.60;99.90;;;;;;20698413;28;20081;-42
2022/12/10 22:42:59;;;;;;;69.38;33.47;;;1.60;99.90;;;;;;20714125;28;20100;-42
2022/12/10 22:53:00;;;;;;;62.22;26.90;;;1.70;99.90;;;;;;20733703;28;20465;-42
2022/12/10 23:03:01;;;;;;;61.58;25.58;;;1.80;99.90;;;;;;20638827;28;20135;-41
2022/12/10 23:13:05;;;;;;;69.60;26.88;;;1.70;99.90;;;;;;20645304;28;20086;-42
2022/12/10 23:23:06;;;;;;;60.17;26.83;;;1.70;99.90;;;;;;20664346;28;20358;-42
2022/12/10 23:33:08;;;;;;;67.72;27.88;;;1.80;99.90;;;;;;20656740;28;20117;-41
2022/12/10 23:43:11;;;;;;;56.70;23.98;;;1.70;99.90;;;;;;20679588;28;20069;-43
2022/12/10 23:53:12;;;;;;;51.03;23.90;;;1.70;99.90;;;;;;20691786;28;20077;-42
